Welcome to La Porte Aviation Services!

An aviation adventure awaits

Current Weather Conditions

Available data for KPPO from the past 2 hours
LA PORTE, IN
Metar
KPPO 250955Z AUTO 00000KT 2SM BR CLR 19/19 A2993 RMK AO2 T01920192

09:55 UTC

Wind: 0° 0kt

Visibility: 2 SM

Sky:

Temp: 19 deg C / 66.2 deg F

Dewpoint: 19 deg C / 66.2 deg F

Pressure: 29.93 inHg

Connect with us on Facebook!

Facebook By Weblizar Powered By Weblizar